Big Piney, WY weather

Big Piney-Marbleton Airport (AMOS), Big Piney, WY: 7/23/2016 04:53
Visibility10 statute milesclear sky
View 7-Day Forecast
Area Summary
Sky/CloudsSky Clear
Weather [last 24 hours]None [rain began 13:06 ended 13:18; rain began 14:10 ended 14:19 ]
Pressure30.27 in.Hg (1025 hPa)
Dew Point26.1 F (-3.3 C)
Relative Humidity50.9 %
Last 24-Hour Precip.Trace
Reading TimePrecipitation
6-hr ending 7/22@17:53Trace
Temperature43 F (6.1 C)red thermometer
Reading TimeMinimum to Maximum Temperature
6-hr ending 7/22@23:5357.9 F to 82.9 F (14.4 C to 28.3 C)
6-hr ending 7/22@17:5380.1 F to 90 F (26.7 C to 32.2 C)
6-hr ending 7/22@11:5352 F to 81 F (11.1 C to 27.2 C)
6-hr ending 7/22@05:5348 F to 66 F (8.9 C to 18.9 C)
24-hr ending 7/23@00:5348 F to 90 F (8.9 C to 32.2 C)
Wind0 MPH (0 KT) green arrow pointing at 0 degrees
Wind FromNorth (000 Degrees)
Rolling 24-hr Peak Wind31.1 MPH (27 KT) on 7/22@17:01
Rolling 24-hr Peak Wind FromSouth/Southwest (200 Degrees)
Twilight Begins05:30Sunshine Yesterday
Sunrise06:03N/A
Sunset20:50
Twilight Ends21:23
METARKBPI 231053Z AUTO 00000KT 10SM CLR 06/M03 A3027 RMK AO2 SLP153 T00611033
Tags: